createdAt,value
2017-01-25T03:10:05.219Z,964.63
2017-01-25T03:11:05.198Z,964.6
2017-01-25T03:12:05.176Z,964.6
2017-01-25T03:13:05.157Z,964.61
2017-01-25T03:14:05.138Z,964.63
2017-01-25T03:15:05.118Z,964.63
2017-01-25T03:16:05.096Z,964.68
2017-01-25T03:17:05.078Z,964.64
2017-01-25T03:18:05.057Z,964.62
2017-01-25T03:19:05.039Z,964.65
2017-01-25T03:20:05.016Z,964.65
2017-01-25T03:21:04.997Z,964.64
2017-01-25T03:22:04.978Z,964.59
2017-01-25T03:23:04.956Z,964.66
2017-01-25T03:24:04.936Z,964.67
2017-01-25T03:25:04.919Z,964.67
2017-01-25T03:26:04.895Z,964.6
2017-01-25T03:27:04.880Z,964.62
2017-01-25T03:28:04.856Z,964.58
2017-01-25T03:29:04.841Z,964.65
2017-01-25T03:30:04.824Z,964.66
2017-01-25T03:31:04.797Z,964.65
2017-01-25T03:32:04.776Z,964.71
2017-01-25T03:33:04.755Z,964.69
2017-01-25T03:34:04.736Z,964.76
2017-01-25T03:35:04.716Z,964.73
2017-01-25T03:36:04.695Z,964.7
2017-01-25T03:37:04.676Z,964.75
2017-01-25T03:38:04.657Z,964.72
2017-01-25T03:39:04.635Z,964.72
2017-01-25T03:40:04.617Z,964.69
2017-01-25T03:41:04.599Z,964.68
2017-01-25T03:42:04.575Z,964.7
2017-01-25T03:43:04.560Z,964.7
2017-01-25T03:44:04.536Z,964.71
2017-01-25T03:45:04.519Z,964.66
2017-01-25T03:46:04.495Z,964.66
2017-01-25T03:47:04.475Z,964.65
2017-01-25T03:48:04.454Z,964.64
2017-01-25T03:49:04.435Z,964.66
2017-01-25T03:50:04.414Z,964.67
2017-01-25T03:51:04.395Z,964.62
2017-01-25T03:52:04.375Z,964.67
2017-01-25T03:53:04.360Z,964.65
2017-01-25T03:54:04.338Z,964.63
2017-01-25T03:55:04.320Z,964.71
2017-01-25T03:56:04.299Z,964.64
2017-01-25T03:57:04.275Z,964.65
2017-01-25T03:58:04.260Z,964.64
2017-01-25T03:59:04.234Z,964.64
2017-01-25T04:00:04.220Z,964.59
2017-01-25T04:01:04.196Z,964.59
2017-01-25T04:02:04.176Z,964.63
2017-01-25T04:03:04.158Z,964.66
2017-01-25T04:04:04.136Z,964.66
2017-01-25T04:05:04.121Z,964.65
2017-01-25T04:06:04.095Z,964.63
2017-01-25T04:07:04.076Z,964.6
2017-01-25T04:08:04.057Z,964.6
2017-01-25T04:09:04.038Z,964.6
2017-01-25T04:10:04.017Z,964.6
2017-01-25T04:11:03.997Z,964.57
2017-01-25T04:12:03.976Z,964.53
2017-01-25T04:13:03.958Z,964.54
2017-01-25T04:14:03.936Z,964.56
2017-01-25T04:15:03.917Z,964.54
2017-01-25T04:16:03.898Z,964.45
2017-01-25T04:17:03.877Z,964.49
2017-01-25T04:18:03.862Z,964.51
2017-01-25T04:19:03.838Z,964.52
2017-01-25T04:20:03.818Z,964.53
2017-01-25T04:21:03.798Z,964.51
2017-01-25T04:22:03.776Z,964.56
2017-01-25T04:23:03.759Z,964.52
2017-01-25T04:24:03.743Z,964.54
2017-01-25T04:25:03.717Z,964.57
2017-01-25T04:26:03.698Z,964.57
2017-01-25T04:27:03.679Z,964.53
2017-01-25T04:28:03.658Z,964.48
2017-01-25T04:29:03.639Z,964.56
2017-01-25T04:30:03.618Z,964.59
2017-01-25T04:31:03.602Z,964.6
2017-01-25T04:32:03.579Z,964.55
2017-01-25T04:33:03.563Z,964.56
2017-01-25T04:34:03.539Z,964.56
2017-01-25T04:35:03.520Z,964.61
2017-01-25T04:36:03.499Z,964.54
2017-01-25T04:37:03.480Z,964.59
2017-01-25T04:38:03.460Z,964.62
2017-01-25T04:39:03.439Z,964.66
2017-01-25T04:40:03.419Z,964.66
2017-01-25T04:41:03.404Z,964.68
2017-01-25T04:42:03.380Z,964.63
2017-01-25T04:43:03.361Z,964.65
2017-01-25T04:44:03.340Z,964.69
2017-01-25T04:45:03.324Z,964.72
2017-01-25T04:46:03.304Z,964.74
2017-01-25T04:47:03.281Z,964.76
2017-01-25T04:48:03.261Z,964.78
2017-01-25T04:49:03.241Z,964.81
2017-01-25T04:50:03.221Z,964.8
2017-01-25T04:51:03.201Z,964.8
2017-01-25T04:52:03.180Z,964.76
2017-01-25T04:53:03.172Z,964.76
2017-01-25T04:54:03.141Z,964.72
2017-01-25T04:55:03.127Z,964.75
2017-01-25T04:56:03.102Z,964.78
2017-01-25T04:57:03.082Z,964.73
2017-01-25T04:58:03.061Z,964.74
2017-01-25T04:59:03.043Z,964.76
2017-01-25T05:00:03.023Z,964.71
2017-01-25T05:01:03.006Z,964.7
2017-01-25T05:02:02.982Z,964.73
2017-01-25T05:03:02.962Z,964.72
2017-01-25T05:04:02.943Z,964.71
2017-01-25T05:05:02.923Z,964.73
2017-01-25T05:06:02.907Z,964.75
2017-01-25T05:07:02.884Z,964.76
2017-01-25T05:08:02.865Z,964.8
2017-01-25T05:09:02.844Z,964.75
2017-01-25T05:10:02.824Z,964.77
2017-01-25T05:11:02.803Z,964.82
2017-01-25T05:12:02.784Z,964.8
2017-01-25T05:13:02.763Z,964.77
2017-01-25T05:14:02.749Z,964.75
2017-01-25T05:15:02.724Z,964.75
2017-01-25T05:16:02.704Z,964.76
2017-01-25T05:17:02.685Z,964.71
2017-01-25T05:18:02.670Z,964.81
2017-01-25T05:19:02.647Z,964.76
2017-01-25T05:20:02.629Z,964.79
2017-01-25T05:21:02.606Z,964.82
2017-01-25T05:22:02.586Z,964.81
2017-01-25T05:23:02.566Z,964.82
2017-01-25T05:24:02.545Z,964.82
2017-01-25T05:25:02.527Z,964.83
2017-01-25T05:26:02.507Z,964.79
2017-01-25T05:27:02.487Z,964.77
2017-01-25T05:28:02.470Z,964.78
2017-01-25T05:29:02.453Z,964.78
2017-01-25T05:30:02.428Z,964.68
2017-01-25T05:31:02.407Z,964.68
2017-01-25T05:32:02.387Z,964.7
2017-01-25T05:33:02.369Z,964.63
2017-01-25T05:34:02.348Z,964.64
2017-01-25T05:35:02.327Z,964.63
2017-01-25T05:36:02.307Z,964.64
2017-01-25T05:37:02.289Z,964.56
2017-01-25T05:38:02.268Z,964.59
2017-01-25T05:39:02.249Z,964.63
2017-01-25T05:40:02.230Z,964.6
2017-01-25T05:41:02.210Z,964.58
2017-01-25T05:42:02.195Z,964.61
2017-01-25T05:43:02.171Z,964.57
2017-01-25T05:44:02.152Z,964.56
2017-01-25T05:45:02.131Z,964.59
2017-01-25T05:46:02.112Z,964.58
2017-01-25T05:47:02.090Z,964.61
2017-01-25T05:48:02.071Z,964.61
2017-01-25T05:49:02.051Z,964.67
2017-01-25T05:50:02.031Z,964.69
2017-01-25T05:51:02.037Z,964.57
2017-01-25T05:52:01.991Z,964.66
2017-01-25T05:53:01.974Z,964.68
2017-01-25T05:54:01.950Z,964.7
2017-01-25T05:55:01.933Z,964.61
2017-01-25T05:56:01.918Z,964.65
2017-01-25T05:57:01.893Z,964.69
2017-01-25T05:58:01.878Z,964.66
2017-01-25T05:59:01.855Z,964.7
2017-01-25T06:00:01.834Z,964.7
2017-01-25T06:01:01.813Z,964.71
2017-01-25T06:02:01.795Z,964.74
2017-01-25T06:03:01.779Z,964.76
2017-01-25T06:04:01.757Z,964.79
2017-01-25T06:05:01.738Z,964.76
2017-01-25T06:06:01.714Z,964.81
2017-01-25T06:07:01.695Z,964.8
2017-01-25T06:08:01.675Z,964.82
2017-01-25T06:09:01.657Z,964.84
2017-01-25T06:10:01.640Z,964.85
2017-01-25T06:11:01.616Z,964.88
2017-01-25T06:12:01.595Z,964.88
2017-01-25T06:13:01.578Z,964.91
2017-01-25T06:14:01.559Z,964.94
2017-01-25T06:15:01.536Z,964.93
2017-01-25T06:16:01.523Z,964.98
2017-01-25T06:17:01.503Z,965
2017-01-25T06:18:01.483Z,965
2017-01-25T06:19:01.464Z,965.02
2017-01-25T06:20:01.439Z,964.98
2017-01-25T06:21:01.419Z,964.99
2017-01-25T06:22:01.399Z,964.98
2017-01-25T06:23:01.384Z,965.01
2017-01-25T06:24:01.360Z,965
2017-01-25T06:25:01.344Z,965.05
2017-01-25T06:26:01.320Z,965.07
2017-01-25T06:27:01.301Z,965.07
2017-01-25T06:28:01.281Z,965.1
2017-01-25T06:29:01.260Z,965.08
2017-01-25T06:30:01.241Z,965.08
2017-01-25T06:31:01.225Z,965.06
2017-01-25T06:32:01.206Z,965.08
2017-01-25T06:33:01.186Z,965.08
2017-01-25T06:34:01.162Z,965.07
2017-01-25T06:35:01.144Z,965.1
2017-01-25T06:36:01.122Z,965.1
2017-01-25T06:37:01.103Z,965.11
2017-01-25T06:38:01.082Z,965.11
2017-01-25T06:39:01.064Z,965.13
2017-01-25T06:40:01.047Z,965.13
2017-01-25T06:41:01.027Z,965.14
2017-01-25T06:42:01.003Z,965.18
2017-01-25T06:43:00.986Z,965.17
2017-01-25T06:44:00.967Z,965.18
2017-01-25T06:45:00.944Z,965.22
2017-01-25T06:46:00.926Z,965.2
2017-01-25T06:47:00.904Z,965.22
2017-01-25T06:48:00.885Z,965.22
2017-01-25T06:49:00.866Z,965.2
2017-01-25T06:50:00.847Z,965.23
2017-01-25T06:51:00.826Z,965.23
2017-01-25T06:52:00.810Z,965.25
2017-01-25T06:53:00.787Z,965.18
2017-01-25T06:54:00.772Z,965.19
2017-01-25T06:55:00.746Z,965.19
2017-01-25T06:56:00.727Z,965.2
2017-01-25T06:57:00.708Z,965.17
2017-01-25T06:58:00.689Z,965.21
2017-01-25T06:59:00.672Z,965.19
2017-01-25T07:00:00.648Z,965.24
2017-01-25T07:01:00.633Z,965.22
2017-01-25T07:02:00.610Z,965.24
2017-01-25T07:03:00.589Z,965.35
2017-01-25T07:04:00.570Z,965.37
2017-01-25T07:05:00.550Z,965.32
2017-01-25T07:06:00.533Z,965.34
2017-01-25T07:07:00.510Z,965.37
2017-01-25T07:08:00.490Z,965.42
2017-01-25T07:09:00.490Z,965.43
2017-01-25T07:10:00.455Z,965.43
2017-01-25T07:11:00.461Z,965.42
2017-01-25T07:12:00.419Z,965.45
2017-01-25T07:13:00.390Z,965.47
2017-01-25T07:14:00.371Z,965.46
2017-01-25T07:15:00.361Z,965.51
2017-01-25T07:16:00.333Z,965.5
2017-01-25T07:17:00.313Z,965.53
2017-01-25T07:18:00.292Z,965.53
2017-01-25T07:19:00.278Z,965.53
2017-01-25T07:20:00.256Z,965.53
2017-01-25T07:21:00.237Z,965.53
2017-01-25T07:22:00.212Z,965.57
2017-01-25T07:23:00.193Z,965.57
2017-01-25T07:24:00.173Z,965.6
2017-01-25T07:25:00.153Z,965.63
2017-01-25T07:26:00.134Z,965.66
2017-01-25T07:27:00.111Z,965.65
2017-01-25T07:28:00.092Z,965.65
2017-01-25T07:29:00.077Z,965.65
2017-01-25T07:30:00.058Z,965.65
2017-01-25T07:31:00.033Z,965.62
2017-01-25T07:32:00.014Z,965.66
2017-01-25T07:32:59.993Z,965.69
2017-01-25T07:33:59.975Z,965.7
2017-01-25T07:34:59.959Z,965.71
2017-01-25T07:35:59.935Z,965.65
2017-01-25T07:36:59.920Z,965.66
2017-01-25T07:37:59.894Z,965.68
2017-01-25T07:38:59.876Z,965.72
2017-01-25T07:39:59.855Z,965.74
2017-01-25T07:40:59.836Z,965.79
2017-01-25T07:41:59.816Z,965.77
2017-01-25T07:42:59.796Z,965.74
2017-01-25T07:43:59.778Z,965.74
2017-01-25T07:44:59.758Z,965.75
2017-01-25T07:45:59.741Z,965.72
2017-01-25T07:46:59.718Z,965.73
2017-01-25T07:47:59.699Z,965.71
2017-01-25T07:48:59.679Z,965.69
2017-01-25T07:49:59.659Z,965.64
2017-01-25T07:50:59.640Z,965.68
2017-01-25T07:51:59.621Z,965.69
2017-01-25T07:52:59.600Z,965.71
2017-01-25T07:53:59.583Z,965.74
2017-01-25T07:54:59.565Z,965.71
2017-01-25T07:55:59.540Z,965.68
2017-01-25T07:56:59.522Z,965.74
2017-01-25T07:57:59.501Z,965.7
2017-01-25T07:58:59.483Z,965.73
2017-01-25T07:59:59.462Z,965.71
2017-01-25T08:00:59.448Z,965.74
2017-01-25T08:01:59.424Z,965.7
2017-01-25T08:02:59.405Z,965.76
2017-01-25T08:03:59.388Z,965.73
2017-01-25T08:04:59.366Z,965.72
2017-01-25T08:05:59.349Z,965.68
2017-01-25T08:06:59.326Z,965.72
2017-01-25T08:07:59.308Z,965.72
2017-01-25T08:08:59.312Z,965.76
2017-01-25T08:09:59.271Z,965.74
2017-01-25T08:10:59.251Z,965.74
2017-01-25T08:11:59.230Z,965.76
2017-01-25T08:12:59.215Z,965.8
2017-01-25T08:13:59.191Z,965.79
2017-01-25T08:14:59.172Z,965.76
2017-01-25T08:15:59.153Z,965.77
2017-01-25T08:16:59.134Z,965.71
2017-01-25T08:17:59.114Z,965.76
2017-01-25T08:18:59.095Z,965.75
2017-01-25T08:19:59.083Z,965.74
2017-01-25T08:20:59.056Z,965.77
2017-01-25T08:21:59.037Z,965.74
2017-01-25T08:22:59.022Z,965.76
2017-01-25T08:23:58.999Z,965.73
2017-01-25T08:24:58.984Z,965.76
2017-01-25T08:25:58.960Z,965.79
2017-01-25T08:26:58.942Z,965.76
2017-01-25T08:27:58.922Z,965.81
2017-01-25T08:28:58.903Z,965.77
2017-01-25T08:29:58.888Z,965.78
2017-01-25T08:30:58.869Z,965.74
2017-01-25T08:31:58.847Z,965.75
2017-01-25T08:32:58.831Z,965.77
2017-01-25T08:33:58.808Z,965.75
2017-01-25T08:34:58.788Z,965.75
2017-01-25T08:35:58.770Z,965.73
2017-01-25T08:36:58.751Z,965.78
2017-01-25T08:37:58.732Z,965.77
2017-01-25T08:38:58.717Z,965.79
2017-01-25T08:39:58.694Z,965.84
2017-01-25T08:40:58.674Z,965.77
2017-01-25T08:41:58.660Z,965.77
2017-01-25T08:42:58.638Z,965.82
2017-01-25T08:43:58.622Z,965.81
2017-01-25T08:44:58.599Z,965.81
2017-01-25T08:45:58.580Z,965.83
2017-01-25T08:46:58.561Z,965.8
2017-01-25T08:47:58.542Z,965.84
2017-01-25T08:48:58.523Z,965.85
2017-01-25T08:49:58.504Z,965.83
2017-01-25T08:50:58.491Z,965.85
2017-01-25T08:51:58.471Z,965.84
2017-01-25T08:52:58.449Z,965.85
2017-01-25T08:53:58.430Z,965.87
2017-01-25T08:54:58.410Z,965.88
2017-01-25T08:55:58.395Z,965.87
2017-01-25T08:56:58.376Z,965.88
2017-01-25T08:57:58.355Z,965.88
2017-01-25T08:58:58.336Z,965.79
2017-01-25T08:59:58.317Z,965.8
2017-01-25T09:00:58.298Z,965.81
2017-01-25T09:01:58.285Z,965.78
2017-01-25T09:02:58.260Z,965.79
2017-01-25T09:03:58.242Z,965.8
2017-01-25T09:04:58.224Z,965.76
2017-01-25T09:05:58.204Z,965.72
2017-01-25T09:06:58.185Z,965.71
2017-01-25T09:07:58.166Z,965.71
2017-01-25T09:08:58.150Z,965.7
2017-01-25T09:09:58.128Z,965.69
2017-01-25T09:10:58.110Z,965.7
2017-01-25T09:11:58.090Z,965.68
2017-01-25T09:12:58.073Z,965.68
2017-01-25T09:13:58.059Z,965.72
2017-01-25T09:14:58.036Z,965.69
2017-01-25T09:15:58.017Z,965.68
2017-01-25T09:16:57.998Z,965.74
2017-01-25T09:17:57.978Z,965.76
2017-01-25T09:18:57.965Z,965.77
2017-01-25T09:19:57.945Z,965.75
2017-01-25T09:20:57.923Z,965.75
2017-01-25T09:21:57.903Z,965.8
2017-01-25T09:22:57.886Z,965.8
2017-01-25T09:23:57.867Z,965.8
2017-01-25T09:24:57.849Z,965.85
2017-01-25T09:25:57.829Z,965.84
2017-01-25T09:26:57.816Z,965.82
2017-01-25T09:27:57.796Z,965.86
2017-01-25T09:28:57.778Z,965.87
2017-01-25T09:29:57.756Z,965.94
2017-01-25T09:30:57.737Z,965.96
2017-01-25T09:31:57.719Z,965.89
2017-01-25T09:32:57.699Z,965.92
2017-01-25T09:33:57.683Z,965.93
2017-01-25T09:34:57.662Z,965.96
2017-01-25T09:35:57.644Z,965.96
2017-01-25T09:36:57.629Z,965.97
2017-01-25T09:37:57.607Z,965.97
2017-01-25T09:38:57.589Z,966
2017-01-25T09:39:57.570Z,965.97
2017-01-25T09:40:57.555Z,966.02
2017-01-25T09:41:57.534Z,965.97
2017-01-25T09:42:57.514Z,965.98
2017-01-25T09:43:57.496Z,966.02
2017-01-25T09:44:57.479Z,966.01
2017-01-25T09:45:57.458Z,966.04
2017-01-25T09:46:57.441Z,966
2017-01-25T09:47:57.422Z,966.04
2017-01-25T09:48:57.404Z,966.06
2017-01-25T09:49:57.384Z,966.06
2017-01-25T09:50:57.367Z,966.05
2017-01-25T09:51:57.349Z,966.01
2017-01-25T09:52:57.330Z,966.08
2017-01-25T09:53:57.312Z,966.03
2017-01-25T09:54:57.295Z,966.03
2017-01-25T09:55:57.279Z,966.06
2017-01-25T09:56:57.255Z,966.02
2017-01-25T09:57:57.237Z,966
2017-01-25T09:58:57.222Z,966.04
2017-01-25T09:59:57.202Z,965.99
2017-01-25T10:00:57.187Z,965.99
2017-01-25T10:01:57.164Z,965.93
2017-01-25T10:02:57.148Z,965.92
2017-01-25T10:03:57.131Z,965.93
2017-01-25T10:04:57.109Z,965.92
2017-01-25T10:05:57.091Z,965.93
2017-01-25T10:06:57.074Z,965.91
2017-01-25T10:07:57.055Z,965.89
2017-01-25T10:08:57.039Z,965.91
2017-01-25T10:09:57.023Z,965.9
2017-01-25T10:10:57.001Z,965.91
2017-01-25T10:11:56.981Z,965.91
2017-01-25T10:12:56.963Z,965.93
2017-01-25T10:13:56.945Z,965.93
2017-01-25T10:14:56.934Z,965.9
2017-01-25T10:15:56.909Z,965.85
2017-01-25T10:16:56.891Z,965.82
2017-01-25T10:17:56.877Z,965.84
2017-01-25T10:18:56.854Z,965.83
2017-01-25T10:19:56.837Z,965.83
2017-01-25T10:20:56.819Z,965.82
2017-01-25T10:21:56.805Z,965.87
2017-01-25T10:22:56.782Z,965.85
2017-01-25T10:23:56.769Z,965.87
2017-01-25T10:24:56.747Z,965.87
2017-01-25T10:25:56.733Z,965.82
2017-01-25T10:26:56.715Z,965.8
2017-01-25T10:27:56.698Z,965.79
2017-01-25T10:28:56.681Z,965.82
2017-01-25T10:29:56.659Z,965.74
2017-01-25T10:30:56.641Z,965.72
2017-01-25T10:31:56.622Z,965.71
2017-01-25T10:32:56.607Z,965.75
2017-01-25T10:33:56.587Z,965.69
2017-01-25T10:34:56.573Z,965.68
2017-01-25T10:35:56.552Z,965.71
2017-01-25T10:36:56.534Z,965.7
2017-01-25T10:37:56.522Z,965.67
2017-01-25T10:38:56.499Z,965.75
2017-01-25T10:39:56.482Z,965.7
2017-01-25T10:40:56.463Z,965.73
2017-01-25T10:41:56.446Z,965.78
2017-01-25T10:42:56.434Z,965.76
2017-01-25T10:43:56.412Z,965.79
2017-01-25T10:44:56.393Z,965.82
2017-01-25T10:45:56.377Z,965.81
2017-01-25T10:46:56.359Z,965.78
2017-01-25T10:47:56.341Z,965.75
2017-01-25T10:48:56.323Z,965.73
2017-01-25T10:49:56.307Z,965.69
2017-01-25T10:50:56.291Z,965.69
2017-01-25T10:51:56.272Z,965.67
2017-01-25T10:52:56.256Z,965.69
2017-01-25T10:53:56.239Z,965.65
2017-01-25T10:54:56.222Z,965.56
2017-01-25T10:55:56.207Z,965.59
2017-01-25T10:56:56.191Z,965.57
2017-01-25T10:57:56.170Z,965.58
2017-01-25T10:58:56.153Z,965.61
2017-01-25T10:59:56.138Z,965.6
2017-01-25T11:00:56.119Z,965.57
2017-01-25T11:01:56.105Z,965.59
2017-01-25T11:02:56.084Z,965.55
2017-01-25T11:03:56.067Z,965.52
2017-01-25T11:04:56.052Z,965.49
2017-01-25T11:05:56.033Z,965.57
2017-01-25T11:06:56.015Z,965.56
2017-01-25T11:07:56.004Z,965.59
2017-01-25T11:08:55.989Z,965.64
2017-01-25T11:09:55.969Z,965.59
2017-01-25T11:10:55.953Z,965.57
2017-01-25T11:11:55.931Z,965.57
2017-01-25T11:12:55.914Z,965.58
2017-01-25T11:13:55.897Z,965.58
2017-01-25T11:14:55.885Z,965.55
2017-01-25T11:15:55.872Z,965.63
2017-01-25T11:16:55.848Z,965.61
2017-01-25T11:17:55.833Z,965.59
2017-01-25T11:18:55.818Z,965.57
2017-01-25T11:19:55.798Z,965.53
2017-01-25T11:20:55.783Z,965.51
2017-01-25T11:21:55.763Z,965.5
2017-01-25T11:22:55.747Z,965.51
2017-01-25T11:23:55.729Z,965.53
2017-01-25T11:24:55.712Z,965.54
2017-01-25T11:25:55.700Z,965.54
2017-01-25T11:26:55.680Z,965.55
2017-01-25T11:27:55.667Z,965.55
2017-01-25T11:28:55.645Z,965.51
2017-01-25T11:29:55.637Z,965.51
2017-01-25T11:30:55.616Z,965.52
2017-01-25T11:31:55.596Z,965.5
2017-01-25T11:32:55.578Z,965.45
2017-01-25T11:33:55.563Z,965.46
2017-01-25T11:34:55.547Z,965.4
2017-01-25T11:35:55.528Z,965.44
2017-01-25T11:36:55.512Z,965.44
2017-01-25T11:37:55.500Z,965.47
2017-01-25T11:38:55.479Z,965.49
2017-01-25T11:39:55.463Z,965.5
2017-01-25T11:40:55.447Z,965.47
2017-01-25T11:41:55.430Z,965.49
2017-01-25T11:42:55.413Z,965.45
2017-01-25T11:43:55.398Z,965.53
2017-01-25T11:44:55.381Z,965.46
2017-01-25T11:45:55.368Z,965.49
2017-01-25T11:46:55.347Z,965.46
2017-01-25T11:47:55.331Z,965.44
2017-01-25T11:48:55.315Z,965.36
2017-01-25T11:49:55.299Z,965.39
2017-01-25T11:50:55.282Z,965.38
2017-01-25T11:51:55.265Z,965.37
2017-01-25T11:52:55.253Z,965.35
2017-01-25T11:53:55.232Z,965.33
2017-01-25T11:54:55.217Z,965.32
2017-01-25T11:55:55.199Z,965.29
2017-01-25T11:56:55.184Z,965.29
2017-01-25T11:57:55.184Z,965.32
2017-01-25T11:58:55.149Z,965.29
2017-01-25T11:59:55.134Z,965.28
2017-01-25T12:00:55.118Z,965.28
2017-01-25T12:01:55.117Z,965.26
2017-01-25T12:02:55.087Z,965.25
2017-01-25T12:03:55.069Z,965.3
2017-01-25T12:04:55.057Z,965.28
2017-01-25T12:05:55.037Z,965.27
2017-01-25T12:06:55.025Z,965.3
2017-01-25T12:07:55.006Z,965.26
2017-01-25T12:08:54.992Z,965.28
2017-01-25T12:09:54.976Z,965.25
2017-01-25T12:10:54.961Z,965.29
2017-01-25T12:11:54.938Z,965.27
2017-01-25T12:12:54.923Z,965.22
2017-01-25T12:13:54.910Z,965.21
2017-01-25T12:14:54.894Z,965.22
2017-01-25T12:15:54.873Z,965.23
2017-01-25T12:16:54.861Z,965.24
2017-01-25T12:17:54.840Z,965.2
2017-01-25T12:18:54.824Z,965.23
2017-01-25T12:19:54.808Z,965.16
2017-01-25T12:20:54.791Z,965.16
2017-01-25T12:21:54.775Z,965.16
2017-01-25T12:22:54.762Z,965.13
2017-01-25T12:23:54.742Z,965.13
2017-01-25T12:24:54.727Z,965.09
2017-01-25T12:25:54.714Z,965.1
2017-01-25T12:26:54.692Z,965.12
2017-01-25T12:27:54.677Z,965.11
2017-01-25T12:28:54.660Z,965.06
2017-01-25T12:29:54.644Z,965.07
2017-01-25T12:30:54.627Z,965.05
2017-01-25T12:31:54.612Z,965.04
2017-01-25T12:32:54.599Z,965.04
2017-01-25T12:33:54.582Z,965
2017-01-25T12:34:54.565Z,965.02
2017-01-25T12:35:54.547Z,965
2017-01-25T12:36:54.530Z,964.97
2017-01-25T12:37:54.517Z,965.01
2017-01-25T12:38:54.499Z,964.97
2017-01-25T12:39:54.480Z,964.95
2017-01-25T12:40:54.465Z,964.93
2017-01-25T12:41:54.450Z,964.86
2017-01-25T12:42:54.432Z,964.87
2017-01-25T12:43:54.416Z,964.86
2017-01-25T12:44:54.403Z,964.88
2017-01-25T12:45:54.388Z,964.85
2017-01-25T12:46:54.367Z,964.83
2017-01-25T12:47:54.351Z,964.82
2017-01-25T12:48:54.339Z,964.78
2017-01-25T12:49:54.318Z,964.81
2017-01-25T12:50:54.306Z,964.84
2017-01-25T12:51:54.291Z,964.81
2017-01-25T12:52:54.275Z,964.79
2017-01-25T12:53:54.257Z,964.81
2017-01-25T12:54:54.238Z,964.78
2017-01-25T12:55:54.222Z,964.82
2017-01-25T12:56:54.206Z,964.76
2017-01-25T12:57:54.195Z,964.78
2017-01-25T12:58:54.178Z,964.79
2017-01-25T12:59:54.158Z,964.8
2017-01-25T13:00:54.142Z,964.8
2017-01-25T13:01:54.131Z,964.84
2017-01-25T13:02:54.111Z,964.78
2017-01-25T13:03:54.098Z,964.82
2017-01-25T13:04:54.078Z,964.78
2017-01-25T13:05:54.067Z,964.76
2017-01-25T13:06:54.046Z,964.78
2017-01-25T13:07:54.030Z,964.77
2017-01-25T13:08:54.019Z,964.75
2017-01-25T13:09:53.999Z,964.74
2017-01-25T13:10:53.982Z,964.71
2017-01-25T13:11:53.968Z,964.72
2017-01-25T13:12:53.955Z,964.71
2017-01-25T13:13:53.935Z,964.68
2017-01-25T13:14:53.918Z,964.69
2017-01-25T13:15:53.902Z,964.68
2017-01-25T13:16:53.886Z,964.75
2017-01-25T13:17:53.869Z,964.72
2017-01-25T13:18:53.858Z,964.69
2017-01-25T13:19:53.843Z,964.69
2017-01-25T13:20:53.821Z,964.64
2017-01-25T13:21:53.806Z,964.69
2017-01-25T13:22:53.789Z,964.65
2017-01-25T13:23:53.773Z,964.7
2017-01-25T13:24:53.758Z,964.67
2017-01-25T13:25:53.742Z,964.72
2017-01-25T13:26:53.724Z,964.75
2017-01-25T13:27:53.712Z,964.79
2017-01-25T13:28:53.699Z,964.74
2017-01-25T13:29:53.676Z,964.73
2017-01-25T13:30:53.659Z,964.78
2017-01-25T13:31:53.644Z,964.74
2017-01-25T13:32:53.626Z,964.76
2017-01-25T13:33:53.614Z,964.77
2017-01-25T13:34:53.595Z,964.78
2017-01-25T13:35:53.579Z,964.79
2017-01-25T13:36:53.563Z,964.76
2017-01-25T13:37:53.547Z,964.78
2017-01-25T13:38:53.531Z,964.83
2017-01-25T13:39:53.512Z,964.82
2017-01-25T13:40:53.497Z,964.86
2017-01-25T13:41:53.481Z,964.86
2017-01-25T13:42:53.469Z,964.87
2017-01-25T13:43:53.449Z,964.87
2017-01-25T13:44:53.437Z,964.91
2017-01-25T13:45:53.417Z,964.85
2017-01-25T13:46:53.400Z,964.86
2017-01-25T13:47:53.388Z,964.85
2017-01-25T13:48:53.368Z,964.84
2017-01-25T13:49:53.352Z,964.81
2017-01-25T13:50:53.334Z,964.81
2017-01-25T13:51:53.319Z,964.84
2017-01-25T13:52:53.307Z,964.81
2017-01-25T13:53:53.290Z,964.79
2017-01-25T13:54:53.269Z,964.82
2017-01-25T13:55:53.259Z,964.76
2017-01-25T13:56:53.237Z,964.81
2017-01-25T13:57:53.255Z,964.81
2017-01-25T13:58:53.204Z,964.82
2017-01-25T13:59:53.188Z,964.85
2017-01-25T14:00:53.172Z,964.87
2017-01-25T14:01:53.154Z,964.82
2017-01-25T14:02:53.142Z,964.84
2017-01-25T14:03:53.122Z,964.83
2017-01-25T14:04:53.106Z,964.79
2017-01-25T14:05:53.093Z,964.82
2017-01-25T14:06:53.072Z,964.8
2017-01-25T14:07:53.061Z,964.84
2017-01-25T14:08:53.038Z,964.81
2017-01-25T14:09:53.026Z,964.8
2017-01-25T14:10:53.007Z,964.77
2017-01-25T14:11:52.996Z,964.78
2017-01-25T14:12:52.974Z,964.82
2017-01-25T14:13:52.957Z,964.81
2017-01-25T14:14:52.941Z,964.81
2017-01-25T14:15:52.923Z,964.76
2017-01-25T14:16:52.907Z,964.77
2017-01-25T14:17:52.985Z,964.76
2017-01-25T14:18:52.873Z,964.78
2017-01-25T14:19:52.857Z,964.77
2017-01-25T14:20:52.841Z,964.77
2017-01-25T14:21:52.824Z,964.75
2017-01-25T14:22:52.812Z,964.73
2017-01-25T14:23:52.794Z,964.79
2017-01-25T14:24:52.779Z,964.76
2017-01-25T14:25:52.763Z,964.77
2017-01-25T14:26:52.791Z,964.7
2017-01-25T14:27:52.729Z,964.74
2017-01-25T14:28:52.708Z,964.75
2017-01-25T14:29:52.692Z,964.73
2017-01-25T14:30:52.682Z,964.75
2017-01-25T14:31:52.661Z,964.72
2017-01-25T14:32:52.641Z,964.69
2017-01-25T14:33:52.625Z,964.7
2017-01-25T14:34:52.608Z,964.73
2017-01-25T14:35:52.590Z,964.7
2017-01-25T14:36:52.573Z,964.68
2017-01-25T14:37:52.559Z,964.67
2017-01-25T14:38:52.546Z,964.64
2017-01-25T14:39:52.528Z,964.66
2017-01-25T14:40:52.508Z,964.68
2017-01-25T14:41:52.490Z,964.69
2017-01-25T14:42:52.474Z,964.68
2017-01-25T14:43:52.457Z,964.72
2017-01-25T14:44:52.445Z,964.72
2017-01-25T14:45:52.427Z,964.69
2017-01-25T14:46:52.405Z,964.68
2017-01-25T14:47:52.390Z,964.67
2017-01-25T14:48:52.373Z,964.7
2017-01-25T14:49:52.355Z,964.72
2017-01-25T14:50:52.342Z,964.74
2017-01-25T14:51:52.327Z,964.72
2017-01-25T14:52:52.304Z,964.72
2017-01-25T14:53:52.292Z,964.74
2017-01-25T14:54:52.272Z,964.74
2017-01-25T14:55:52.255Z,964.76
2017-01-25T14:56:52.238Z,964.8
2017-01-25T14:57:52.221Z,964.83
2017-01-25T14:58:52.208Z,964.86
2017-01-25T14:59:52.192Z,964.86
2017-01-25T15:00:52.174Z,964.87
2017-01-25T15:01:52.153Z,964.84
2017-01-25T15:02:52.136Z,964.84
2017-01-25T15:03:52.118Z,964.82
2017-01-25T15:04:52.102Z,964.81
2017-01-25T15:05:52.085Z,964.81
2017-01-25T15:06:52.067Z,964.82
2017-01-25T15:07:52.050Z,964.79
2017-01-25T15:08:52.034Z,964.84
2017-01-25T15:09:52.016Z,964.86
2017-01-25T15:10:51.999Z,964.88
2017-01-25T15:11:51.984Z,964.91
2017-01-25T15:12:51.965Z,964.86
2017-01-25T15:13:51.951Z,964.87
2017-01-25T15:14:51.929Z,964.84
2017-01-25T15:15:51.915Z,964.81
2017-01-25T15:16:51.895Z,964.77
2017-01-25T15:17:51.878Z,964.79
2017-01-25T15:18:51.860Z,964.88
2017-01-25T15:19:51.842Z,964.83
2017-01-25T15:20:51.824Z,964.9
2017-01-25T15:21:51.812Z,964.88
2017-01-25T15:22:51.791Z,964.88
2017-01-25T15:23:51.772Z,964.96
2017-01-25T15:24:51.757Z,964.94
2017-01-25T15:25:51.736Z,964.95
2017-01-25T15:26:51.720Z,964.98
2017-01-25T15:27:51.703Z,964.98
2017-01-25T15:28:51.686Z,965
2017-01-25T15:29:51.670Z,964.93
2017-01-25T15:30:51.651Z,965
2017-01-25T15:31:51.633Z,965
2017-01-25T15:32:51.618Z,965.03
2017-01-25T15:33:51.600Z,965.03
2017-01-25T15:34:51.579Z,965.04
2017-01-25T15:35:51.565Z,965.06
2017-01-25T15:36:51.543Z,965.08
2017-01-25T15:37:51.526Z,965.07
2017-01-25T15:38:51.507Z,965.08
2017-01-25T15:39:51.492Z,965.03
2017-01-25T15:40:51.476Z,965.04